Time;durP1;ratioP1;P1;durP2;ratioP2;P2;SDS_P1;SDS_P2;PMS_P1;PMS_P2;Temp;Humidity;BMP_temperature;BMP_pressure;BME280_temperature;BME280_humidity;BME280_pressure;Samples;Min_cycle;Max_cycle;Signal;HPM_P1;HPM_P2
2023/06/02 00:01:37;;;;;;;7.63;2.72;;;;;;;-144.85;100.00;61331.59;5099624;28;32285;-71
2023/06/02 00:04:04;;;;;;;9.60;3.30;;;;;;;-144.85;100.00;61331.59;5100905;28;33273;-71
2023/06/02 00:06:33;;;;;;;10.23;3.33;;;;;;;-144.85;100.00;61331.59;5080434;28;31782;-71
2023/06/02 00:09:04;;;;;;;6.70;2.97;;;;;;;-144.85;100.00;61331.59;5096577;28;31360;-72
2023/06/02 00:11:36;;;;;;;6.03;3.00;;;;;;;-144.85;100.00;61331.59;5096621;28;32348;-72
2023/06/02 00:14:05;;;;;;;11.32;2.85;;;;;;;-144.85;100.00;61331.59;5108728;28;33044;-71
2023/06/02 00:16:41;;;;;;;8.27;2.85;;;;;;;-144.85;100.00;61331.59;5082109;28;31841;-72
2023/06/02 00:19:11;;;;;;;6.72;2.75;;;;;;;-144.85;100.00;61331.59;5100130;28;30451;-74
2023/06/02 00:21:40;;;;;;;8.23;3.03;;;;;;;-144.85;100.00;61331.59;5101427;28;33448;-72
2023/06/02 00:24:08;;;;;;;10.70;3.17;;;;;;;-144.85;100.00;61331.59;5099430;28;31902;-72
2023/06/02 00:26:35;;;;;;;8.52;2.70;;;;;;;-144.85;100.00;61331.59;5098438;28;31628;-72
2023/06/02 00:29:02;;;;;;;8.32;2.70;;;;;;;-144.85;100.00;61331.59;5065462;28;30901;-72
2023/06/02 00:31:30;;;;;;;11.02;2.88;;;;;;;-144.85;100.00;61331.59;5079161;28;32042;-71
2023/06/02 00:33:57;;;;;;;8.32;2.33;;;;;;;-144.85;100.00;61331.59;5078916;28;32396;-72
2023/06/02 00:36:24;;;;;;;8.00;2.50;;;;;;;-144.85;100.00;61331.59;5083125;28;31165;-72
2023/06/02 00:38:52;;;;;;;10.80;2.65;;;;;;;-144.85;100.00;61331.59;5102132;28;31234;-73
2023/06/02 00:41:19;;;;;;;12.23;2.58;;;;;;;-144.85;100.00;61331.59;5104142;28;32278;-72
2023/06/02 00:43:46;;;;;;;11.45;2.75;;;;;;;-144.85;100.00;61331.59;5102413;28;32086;-72
2023/06/02 00:46:13;;;;;;;11.40;2.60;;;;;;;-144.85;100.00;61331.59;5068979;28;31058;-72
2023/06/02 00:48:40;;;;;;;10.60;2.95;;;;;;;-144.85;100.00;61331.59;5082266;28;29649;-72
2023/06/02 00:51:08;;;;;;;9.35;2.92;;;;;;;-144.85;100.00;61331.59;5081663;28;32727;-72
2023/06/02 00:53:36;;;;;;;9.88;2.70;;;;;;;-144.85;100.00;61331.59;5097358;28;32859;-72
2023/06/02 00:56:03;;;;;;;10.32;2.58;;;;;;;-144.85;100.00;61331.59;5102198;28;32701;-72
2023/06/02 00:58:37;;;;;;;7.32;2.40;;;;;;;-144.85;100.00;61331.59;5100429;28;32521;-72
2023/06/02 01:01:11;;;;;;;11.20;2.58;;;;;;;-144.85;100.00;61331.59;5097262;28;32198;-72
2023/06/02 01:03:42;;;;;;;8.73;2.75;;;;;;;-144.85;100.00;61331.59;5062586;28;32559;-72
2023/06/02 01:06:12;;;;;;;7.88;2.30;;;;;;;-144.85;100.00;61331.59;5096752;28;30751;-71
2023/06/02 01:08:41;;;;;;;11.43;2.90;;;;;;;-144.85;100.00;61331.59;5079988;28;30348;-72
2023/06/02 01:11:08;;;;;;;10.55;2.78;;;;;;;-144.85;100.00;61331.59;5096672;28;32502;-72
2023/06/02 01:13:36;;;;;;;12.50;2.63;;;;;;;-144.85;100.00;61331.59;5098211;28;31512;-72
2023/06/02 01:16:04;;;;;;;6.82;2.42;;;;;;;-144.85;100.00;61331.59;5100342;28;32907;-72
2023/06/02 01:18:35;;;;;;;10.50;2.75;;;;;;;-144.85;100.00;61331.59;5099958;28;32528;-72
2023/06/02 01:21:05;;;;;;;10.38;2.67;;;;;;;-144.85;100.00;61331.59;5094672;28;32946;-71
2023/06/02 01:23:36;;;;;;;7.00;2.63;;;;;;;-144.85;100.00;61331.59;5102252;28;33282;-72
2023/06/02 01:26:08;;;;;;;9.68;2.70;;;;;;;-144.85;100.00;61331.59;5078649;28;32452;-72
2023/06/02 01:28:37;;;;;;;9.43;2.42;;;;;;;-144.85;100.00;61331.59;5065429;28;30441;-72
2023/06/02 01:31:15;;;;;;;11.48;2.33;;;;;;;-144.85;100.00;61331.59;5082519;28;32807;-72
2023/06/02 01:33:58;;;;;;;8.60;2.75;;;;;;;-144.85;100.00;61331.59;5105099;28;32210;-72
2023/06/02 01:36:28;;;;;;;6.90;2.65;;;;;;;-144.85;100.00;61331.59;5098534;28;32638;-72
2023/06/02 01:38:57;;;;;;;10.27;2.42;;;;;;;-144.85;100.00;61331.59;5068723;28;32110;-72
2023/06/02 01:41:27;;;;;;;11.52;2.70;;;;;;;-144.85;100.00;61331.59;5081759;28;31614;-72
2023/06/02 01:43:56;;;;;;;9.70;2.63;;;;;;;-144.85;100.00;61331.59;5098533;28;32373;-71
2023/06/02 01:46:25;;;;;;;10.50;2.50;;;;;;;-144.85;100.00;61331.59;5103388;28;32073;-71
2023/06/02 01:48:54;;;;;;;9.05;2.45;;;;;;;-144.85;100.00;61331.59;5079259;28;31218;-72
2023/06/02 01:51:21;;;;;;;11.43;2.60;;;;;;;-144.85;100.00;61331.59;5079886;28;31101;-72
2023/06/02 01:53:49;;;;;;;10.65;2.50;;;;;;;-144.85;100.00;61331.59;5082087;28;31128;-72
2023/06/02 01:56:16;;;;;;;7.70;2.63;;;;;;;-144.85;100.00;61331.59;5095072;28;32544;-71
2023/06/02 01:58:44;;;;;;;11.30;3.00;;;;;;;-144.85;100.00;61331.59;5083458;28;32985;-71
2023/06/02 02:01:11;;;;;;;10.95;2.92;;;;;;;-144.85;100.00;61331.59;5071534;28;31779;-72
2023/06/02 02:03:39;;;;;;;9.23;2.47;;;;;;;-144.85;100.00;61331.59;5099792;28;31803;-72
2023/06/02 02:06:06;;;;;;;10.93;3.22;;;;;;;-144.85;100.00;61331.59;5081840;28;32318;-72
2023/06/02 02:08:33;;;;;;;10.15;2.85;;;;;;;-144.85;100.00;61331.59;5099233;28;31273;-71
2023/06/02 02:11:00;;;;;;;11.23;2.95;;;;;;;-144.85;100.00;61331.59;5102401;28;32399;-72
2023/06/02 02:13:28;;;;;;;10.50;3.15;;;;;;;-144.85;100.00;61331.59;5080696;28;31780;-71
2023/06/02 02:15:55;;;;;;;13.15;2.50;;;;;;;-144.85;100.00;61331.59;5080168;28;32025;-72
2023/06/02 02:18:24;;;;;;;14.88;2.75;;;;;;;-144.85;100.00;61331.59;5097307;28;32808;-72
2023/06/02 02:20:51;;;;;;;12.07;2.83;;;;;;;-144.85;100.00;61331.59;5098379;28;32320;-72
2023/06/02 02:23:18;;;;;;;11.13;3.00;;;;;;;-144.85;100.00;61331.59;5097676;28;32111;-72
2023/06/02 02:25:46;;;;;;;12.90;2.95;;;;;;;-144.85;100.00;61331.59;5076227;28;31121;-72
2023/06/02 02:28:13;;;;;;;10.57;2.42;;;;;;;-144.85;100.00;61331.59;5097285;28;31325;-72
2023/06/02 02:30:40;;;;;;;9.40;2.97;;;;;;;-144.85;100.00;61331.59;5097118;28;32424;-72
2023/06/02 02:33:08;;;;;;;12.88;3.22;;;;;;;-144.85;100.00;61331.59;5059877;28;31149;-72
2023/06/02 02:35:36;;;;;;;8.30;2.88;;;;;;;-144.85;100.00;61331.59;5098648;28;32834;-72
2023/06/02 02:38:03;;;;;;;10.77;2.60;;;;;;;-144.85;100.00;61331.59;5079421;28;30826;-73
2023/06/02 02:40:32;;;;;;;8.35;2.42;;;;;;;-144.85;100.00;61331.59;5080270;28;31365;-72
2023/06/02 02:42:59;;;;;;;13.15;3.20;;;;;;;-144.85;100.00;61331.59;5082518;28;31339;-72
2023/06/02 02:45:26;;;;;;;9.05;3.10;;;;;;;-144.85;100.00;61331.59;5098920;28;31746;-72
2023/06/02 02:47:54;;;;;;;9.25;2.80;;;;;;;-144.85;100.00;61331.59;5077381;28;30426;-72
2023/06/02 02:50:21;;;;;;;11.18;2.90;;;;;;;-144.85;100.00;61331.59;5067229;28;32516;-72
2023/06/02 02:52:48;;;;;;;9.55;2.85;;;;;;;-144.85;100.00;61331.59;5088132;28;32083;-72
2023/06/02 02:55:16;;;;;;;12.45;3.10;;;;;;;-144.85;100.00;61331.59;5088268;28;30737;-72
2023/06/02 02:57:43;;;;;;;10.77;2.72;;;;;;;-144.85;100.00;61331.59;5078676;28;31735;-72
2023/06/02 03:00:12;;;;;;;8.75;2.67;;;;;;;-144.85;100.00;61331.59;5099587;28;33159;-72
2023/06/02 03:02:41;;;;;;;10.27;2.90;;;;;;;-144.85;100.00;61331.59;5060284;28;32375;-72
2023/06/02 03:05:13;;;;;;;7.47;2.72;;;;;;;-144.85;100.00;61331.59;5078723;28;31816;-72
2023/06/02 03:07:44;;;;;;;11.68;2.80;;;;;;;-144.85;100.00;61331.59;5046308;28;30526;-72
2023/06/02 03:10:12;;;;;;;10.15;2.75;;;;;;;-144.85;100.00;61331.59;5065490;28;32616;-72
2023/06/02 03:12:39;;;;;;;5.07;2.15;;;;;;;-144.85;100.00;61331.59;5081399;28;31932;-73
2023/06/02 03:15:08;;;;;;;8.05;3.10;;;;;;;-144.85;100.00;61331.59;5076984;28;31865;-72
2023/06/02 03:17:37;;;;;;;11.80;3.03;;;;;;;-144.85;100.00;61331.59;5078475;28;31937;-73
2023/06/02 03:20:09;;;;;;;7.55;3.00;;;;;;;-144.85;100.00;61331.59;5076840;28;31673;-73
2023/06/02 03:22:39;;;;;;;9.90;2.97;;;;;;;-144.85;100.00;61331.59;5061495;28;32346;-73
2023/06/02 03:25:07;;;;;;;10.20;3.10;;;;;;;-144.85;100.00;61331.59;5062137;28;30628;-73
2023/06/02 03:27:36;;;;;;;13.07;2.80;;;;;;;-144.85;100.00;61331.59;5078710;28;30437;-72
2023/06/02 03:30:04;;;;;;;7.97;2.75;;;;;;;-144.85;100.00;61331.59;5100298;28;32650;-73
2023/06/02 03:32:35;;;;;;;11.98;3.17;;;;;;;-144.85;100.00;61331.59;5087281;28;32328;-73
2023/06/02 03:35:03;;;;;;;9.02;2.90;;;;;;;-144.85;100.00;61331.59;5062908;28;30892;-73
2023/06/02 03:37:34;;;;;;;9.75;2.95;;;;;;;-144.85;100.00;61331.59;5066728;28;30701;-73
2023/06/02 03:40:04;;;;;;;9.07;2.85;;;;;;;-144.85;100.00;61331.59;5095796;28;32643;-72
2023/06/02 03:42:32;;;;;;;13.30;2.85;;;;;;;-144.85;100.00;61331.59;5078886;28;31308;-72
2023/06/02 03:44:59;;;;;;;9.70;2.92;;;;;;;-144.85;100.00;61331.59;5081666;28;31699;-73
2023/06/02 03:47:26;;;;;;;7.75;2.50;;;;;;;-144.85;100.00;61331.59;5087509;28;31999;-73
2023/06/02 03:49:54;;;;;;;10.07;2.60;;;;;;;-144.85;100.00;61331.59;5093969;28;31726;-72
2023/06/02 03:52:21;;;;;;;11.27;2.65;;;;;;;-144.85;100.00;61331.59;5120584;27;30061;-73
2023/06/02 03:54:49;;;;;;;10.70;2.38;;;;;;;-144.85;100.00;61331.59;5096473;28;32139;-72
2023/06/02 03:57:17;;;;;;;8.65;2.20;;;;;;;-144.85;100.00;61331.59;5080288;28;31638;-72
2023/06/02 03:59:44;;;;;;;6.90;2.47;;;;;;;-144.85;100.00;61331.59;5097642;28;32393;-73
2023/06/02 04:02:12;;;;;;;9.05;2.50;;;;;;;-144.85;100.00;61331.59;5062221;28;31074;-73
2023/06/02 04:04:40;;;;;;;11.82;2.80;;;;;;;-144.85;100.00;61331.59;5060600;28;30994;-73
2023/06/02 04:07:07;;;;;;;8.73;2.63;;;;;;;-144.85;100.00;61331.59;5094796;28;31688;-72
2023/06/02 04:09:36;;;;;;;8.57;2.78;;;;;;;-144.85;100.00;61331.59;5049095;28;31434;-72
2023/06/02 04:12:03;;;;;;;8.32;2.80;;;;;;;-144.85;100.00;61331.59;5101967;28;34017;-71
2023/06/02 04:14:34;;;;;;;11.23;2.97;;;;;;;-144.85;100.00;61331.59;5078762;28;30761;-71
2023/06/02 04:17:03;;;;;;;8.32;2.70;;;;;;;-144.85;100.00;61331.59;5094492;28;31594;-71
2023/06/02 04:19:30;;;;;;;6.50;2.75;;;;;;;-144.85;100.00;61331.59;5079302;28;31468;-72
2023/06/02 04:21:57;;;;;;;7.15;2.58;;;;;;;-144.85;100.00;61331.59;5098036;28;32429;-72
2023/06/02 04:24:25;;;;;;;9.05;2.17;;;;;;;-144.85;100.00;61331.59;5094571;28;33064;-72
2023/06/02 04:26:52;;;;;;;10.35;2.55;;;;;;;-144.85;100.00;61331.59;5078639;28;30509;-72
2023/06/02 04:29:19;;;;;;;6.97;2.38;;;;;;;-144.85;100.00;61331.59;5046397;28;32567;-71
2023/06/02 04:31:47;;;;;;;8.52;2.78;;;;;;;-144.85;100.00;61331.59;5077854;28;31105;-71
2023/06/02 04:34:25;;;;;;;7.63;2.50;;;;;;;-144.85;100.00;61331.59;5073281;28;30880;-72
2023/06/02 04:36:53;;;;;;;7.55;2.50;;;;;;;-144.85;100.00;61331.59;5081432;28;30536;-72
2023/06/02 04:39:22;;;;;;;10.20;2.63;;;;;;;-144.85;100.00;61331.59;5064020;28;31419;-72
2023/06/02 04:41:50;;;;;;;9.23;2.65;;;;;;;-144.85;100.00;61331.59;5077008;28;31336;-72
2023/06/02 04:44:19;;;;;;;8.10;2.70;;;;;;;-144.85;100.00;61331.59;5061845;28;30868;-72
2023/06/02 04:46:48;;;;;;;11.48;3.03;;;;;;;-144.85;100.00;61331.59;5067214;28;30281;-72
2023/06/02 04:49:15;;;;;;;5.85;2.58;;;;;;;-144.85;100.00;61331.59;5095753;28;32852;-72
2023/06/02 04:51:45;;;;;;;8.15;2.72;;;;;;;-144.85;100.00;61331.59;5076048;28;32654;-72
2023/06/02 04:54:15;;;;;;;10.18;2.60;;;;;;;-144.85;100.00;61331.59;5078015;28;32086;-72
2023/06/02 04:56:43;;;;;;;12.63;2.90;;;;;;;-144.85;100.00;61331.59;5083579;28;30305;-72
2023/06/02 04:59:13;;;;;;;7.15;2.33;;;;;;;-144.85;100.00;61331.59;5096136;28;32320;-72
2023/06/02 05:01:42;;;;;;;8.15;2.53;;;;;;;-144.85;100.00;61331.59;5064788;28;31174;-72
2023/06/02 05:04:09;;;;;;;7.32;2.40;;;;;;;-144.85;100.00;61331.59;5082800;28;30914;-72
2023/06/02 05:06:37;;;;;;;8.38;2.78;;;;;;;-144.85;100.00;61331.59;5064771;28;30963;-72
2023/06/02 05:09:04;;;;;;;7.50;2.33;;;;;;;-144.85;100.00;61331.59;5094359;28;32382;-71
2023/06/02 05:11:33;;;;;;;8.52;2.63;;;;;;;-144.85;100.00;61331.59;5081104;28;32271;-72
2023/06/02 05:14:02;;;;;;;12.32;2.67;;;;;;;-144.85;100.00;61331.59;5051238;28;31068;-72
2023/06/02 05:16:30;;;;;;;10.23;2.58;;;;;;;-144.85;100.00;61331.59;5079348;28;30561;-72
2023/06/02 05:18:58;;;;;;;10.80;2.40;;;;;;;-144.85;100.00;61331.59;5083984;28;31481;-72
2023/06/02 05:21:25;;;;;;;5.75;2.10;;;;;;;-144.85;100.00;61331.59;5067355;28;31433;-72
2023/06/02 05:23:53;;;;;;;9.60;2.35;;;;;;;-144.85;100.00;61331.59;5081327;28;31155;-72
2023/06/02 05:26:20;;;;;;;12.10;2.30;;;;;;;-144.85;100.00;61331.59;5097324;28;31467;-72
2023/06/02 05:28:50;;;;;;;9.25;2.10;;;;;;;-144.85;100.00;61331.59;5089458;28;31693;-71
2023/06/02 05:31:18;;;;;;;9.75;2.25;;;;;;;-144.85;100.00;61331.59;5097756;28;33514;-72
2023/06/02 05:33:45;;;;;;;11.07;2.42;;;;;;;-144.85;100.00;61331.59;5082866;28;31980;-72
2023/06/02 05:36:13;;;;;;;11.93;2.30;;;;;;;-144.85;100.00;61331.59;5096097;28;30767;-72
2023/06/02 05:38:42;;;;;;;11.07;2.72;;;;;;;-144.85;100.00;61331.59;5096931;28;33428;-72
2023/06/02 05:41:10;;;;;;;7.65;2.65;;;;;;;-144.85;100.00;61331.59;5080468;28;31305;-72
2023/06/02 05:43:37;;;;;;;9.75;2.78;;;;;;;-144.85;100.00;61331.59;5081696;28;31349;-72
2023/06/02 05:46:05;;;;;;;9.35;2.53;;;;;;;-144.85;100.00;61331.59;5083160;28;30594;-72
2023/06/02 05:48:32;;;;;;;13.65;2.45;;;;;;;-144.85;100.00;61331.59;5069071;28;31639;-71
2023/06/02 05:51:00;;;;;;;5.70;1.83;;;;;;;-144.85;100.00;61331.59;5083625;28;32149;-72
2023/06/02 05:53:28;;;;;;;8.15;2.30;;;;;;;-144.85;100.00;61331.59;5079891;28;30818;-73
2023/06/02 05:55:55;;;;;;;7.80;2.13;;;;;;;-144.85;100.00;61331.59;5062451;28;30411;-73
2023/06/02 05:58:22;;;;;;;11.82;2.40;;;;;;;-144.85;100.00;61331.59;5078304;28;32475;-72
2023/06/02 06:00:50;;;;;;;8.43;2.13;;;;;;;-144.85;100.00;61331.59;5065467;28;31003;-72
2023/06/02 06:03:17;;;;;;;9.30;2.28;;;;;;;-144.85;100.00;61331.59;5050150;28;31725;-72
2023/06/02 06:05:45;;;;;;;7.82;2.13;;;;;;;-144.85;100.00;61331.59;5061390;28;31772;-72
2023/06/02 06:08:13;;;;;;;10.25;2.30;;;;;;;-144.85;100.00;61331.59;5100911;28;32533;-73
2023/06/02 06:10:42;;;;;;;10.90;2.53;;;;;;;-144.85;100.00;61331.59;5097902;28;32266;-73
2023/06/02 06:13:11;;;;;;;8.10;2.22;;;;;;;-144.85;100.00;61331.59;5079488;28;31077;-73
2023/06/02 06:15:39;;;;;;;9.82;2.42;;;;;;;-144.85;100.00;61331.59;5078729;28;32189;-73
2023/06/02 06:18:06;;;;;;;8.10;2.22;;;;;;;-144.85;100.00;61331.59;5066207;28;31619;-73
2023/06/02 06:20:34;;;;;;;6.03;2.17;;;;;;;-144.85;100.00;61331.59;5097957;28;32229;-72
2023/06/02 06:23:01;;;;;;;10.43;2.50;;;;;;;-144.85;100.00;61331.59;5081282;28;32851;-72
2023/06/02 06:25:28;;;;;;;7.15;2.22;;;;;;;-144.85;100.00;61331.59;5095763;28;32415;-72
2023/06/02 06:27:56;;;;;;;11.18;2.40;;;;;;;-144.85;100.00;61331.59;5082146;28;31443;-72
2023/06/02 06:30:24;;;;;;;11.63;2.42;;;;;;;-144.85;100.00;61331.59;5072555;28;31105;-73
2023/06/02 06:32:56;;;;;;;7.28;2.33;;;;;;;-144.85;100.00;61331.59;5083074;28;30921;-73
2023/06/02 06:35:23;;;;;;;9.85;2.20;;;;;;;-144.85;100.00;61331.59;5078500;28;31969;-72
2023/06/02 06:37:51;;;;;;;7.75;2.28;;;;;;;-144.85;100.00;61331.59;5097619;28;32869;-72
2023/06/02 06:40:18;;;;;;;13.10;2.40;;;;;;;-144.85;100.00;61331.59;5070070;28;32284;-72
2023/06/02 06:42:47;;;;;;;7.53;2.38;;;;;;;-144.85;100.00;61331.59;5079143;28;30927;-73
2023/06/02 06:45:20;;;;;;;5.20;1.85;;;;;;;-144.85;100.00;61331.59;5079015;28;33573;-72
2023/06/02 06:47:49;;;;;;;8.68;2.10;;;;;;;-144.85;100.00;61331.59;5077879;28;32469;-72
2023/06/02 06:50:17;;;;;;;11.88;2.45;;;;;;;-144.85;100.00;61331.59;5079324;28;31975;-73
2023/06/02 06:52:45;;;;;;;8.77;2.00;;;;;;;-144.85;100.00;61331.59;5097859;28;31755;-73
2023/06/02 06:55:13;;;;;;;10.15;2.10;;;;;;;-144.85;100.00;61331.59;5096913;28;31401;-73
2023/06/02 06:57:40;;;;;;;11.43;2.22;;;;;;;-144.85;100.00;61331.59;5051538;28;31095;-72
2023/06/02 07:00:08;;;;;;;10.18;2.38;;;;;;;-144.85;100.00;61331.59;5095127;28;32869;-72
2023/06/02 07:02:36;;;;;;;9.63;2.22;;;;;;;-144.85;100.00;61331.59;5079103;28;30867;-72
2023/06/02 07:05:04;;;;;;;14.20;2.30;;;;;;;-144.85;100.00;61331.59;5074098;28;30733;-72
2023/06/02 07:07:31;;;;;;;10.82;2.22;;;;;;;-144.85;100.00;61331.59;5088495;28;32023;-72
2023/06/02 07:09:58;;;;;;;11.50;2.70;;;;;;;-144.85;100.00;61331.59;5097332;28;31946;-72
2023/06/02 07:12:25;;;;;;;10.80;2.20;;;;;;;-144.85;100.00;61331.59;5097586;28;32096;-73
2023/06/02 07:14:54;;;;;;;10.30;2.10;;;;;;;-144.85;100.00;61331.59;5097096;28;31337;-72
2023/06/02 07:17:21;;;;;;;9.02;2.75;;;;;;;-144.85;100.00;61331.59;5097554;28;32821;-72
2023/06/02 07:19:48;;;;;;;10.00;2.20;;;;;;;-144.85;100.00;61331.59;5078155;28;32956;-72
2023/06/02 07:22:15;;;;;;;9.82;2.55;;;;;;;-144.85;100.00;61331.59;5097608;28;31911;-72
2023/06/02 07:24:43;;;;;;;9.05;2.15;;;;;;;-144.85;100.00;61331.59;5065592;28;30491;-72
2023/06/02 07:27:12;;;;;;;10.73;2.13;;;;;;;-144.85;100.00;61331.59;5096915;28;34123;-72
2023/06/02 07:29:39;;;;;;;10.18;2.03;;;;;;;-144.85;100.00;61331.59;5097333;28;31982;-72
2023/06/02 07:32:08;;;;;;;9.18;2.08;;;;;;;-144.85;100.00;61331.59;5097147;28;31943;-73
2023/06/02 07:34:37;;;;;;;9.95;2.03;;;;;;;-144.85;100.00;61331.59;5082224;28;31502;-73
2023/06/02 07:37:05;;;;;;;8.25;2.05;;;;;;;-144.85;100.00;61331.59;5097206;28;33395;-72
2023/06/02 07:39:32;;;;;;;9.80;1.90;;;;;;;-144.85;100.00;61331.59;5096977;28;33026;-73
2023/06/02 07:41:59;;;;;;;9.10;2.58;;;;;;;-144.85;100.00;61331.59;5097215;28;32501;-72
2023/06/02 07:44:26;;;;;;;10.82;2.70;;;;;;;-144.85;100.00;61331.59;5096971;28;31390;-72
2023/06/02 07:46:53;;;;;;;9.05;1.98;;;;;;;-144.85;100.00;61331.59;5096998;28;31986;-73
2023/06/02 07:49:20;;;;;;;7.35;1.88;;;;;;;-144.85;100.00;61331.59;5097136;28;33436;-72
2023/06/02 07:51:48;;;;;;;7.22;2.00;;;;;;;-144.85;100.00;61331.59;5065454;28;31846;-73
2023/06/02 07:54:15;;;;;;;8.50;2.00;;;;;;;-144.85;100.00;61331.59;5051703;28;30155;-72
2023/06/02 07:56:42;;;;;;;7.40;2.03;;;;;;;-144.85;100.00;61331.59;5078231;28;32129;-73
2023/06/02 07:59:12;;;;;;;12.70;2.10;;;;;;;-144.85;100.00;61331.59;5096626;28;33291;-72
2023/06/02 08:01:39;;;;;;;13.48;2.30;;;;;;;-144.85;100.00;61331.59;5096090;28;31751;-72
2023/06/02 08:04:06;;;;;;;9.68;2.00;;;;;;;-144.85;100.00;61331.59;5096604;28;31578;-72
2023/06/02 08:06:34;;;;;;;12.50;2.22;;;;;;;-144.85;100.00;61331.59;5103828;28;32325;-73
2023/06/02 08:09:01;;;;;;;13.23;2.40;;;;;;;-144.85;100.00;61331.59;5078745;28;33218;-72
2023/06/02 08:11:28;;;;;;;12.35;2.28;;;;;;;-144.85;100.00;61331.59;5042773;28;30797;-72
2023/06/02 08:13:56;;;;;;;9.27;2.10;;;;;;;-144.85;100.00;61331.59;5087995;28;31836;-73
2023/06/02 08:16:24;;;;;;;9.77;2.28;;;;;;;-144.85;100.00;61331.59;5096305;28;32442;-73
2023/06/02 08:18:58;;;;;;;11.32;2.63;;;;;;;-144.85;100.00;61331.59;5095936;28;32195;-72
2023/06/02 08:21:25;;;;;;;11.02;2.03;;;;;;;-144.85;100.00;61331.59;5058605;28;31763;-72
2023/06/02 08:23:53;;;;;;;13.07;2.33;;;;;;;-144.85;100.00;61331.59;5090813;28;31556;-72
2023/06/02 08:26:20;;;;;;;13.35;2.67;;;;;;;-144.85;100.00;61331.59;5097031;28;32302;-73
2023/06/02 08:28:49;;;;;;;12.95;2.55;;;;;;;-144.85;100.00;61331.59;5095575;28;33136;-72
2023/06/02 08:31:19;;;;;;;10.13;2.33;;;;;;;-144.85;100.00;61331.59;5097295;28;31654;-73
2023/06/02 08:33:47;;;;;;;11.82;2.47;;;;;;;-144.85;100.00;61331.59;5055865;28;31924;-73
2023/06/02 08:36:17;;;;;;;12.07;2.53;;;;;;;-144.85;100.00;61331.59;5063862;28;32357;-72
2023/06/02 08:38:47;;;;;;;12.45;2.50;;;;;;;-144.85;100.00;61331.59;5099617;28;32964;-72
2023/06/02 08:41:15;;;;;;;8.40;2.67;;;;;;;-144.85;100.00;61331.59;5107816;28;31754;-73
2023/06/02 08:43:42;;;;;;;11.35;2.55;;;;;;;-144.85;100.00;61331.59;5112608;28;31429;-72
2023/06/02 08:46:14;;;;;;;7.88;2.42;;;;;;;-144.85;100.00;61331.59;5099989;28;32139;-73
2023/06/02 08:48:45;;;;;;;9.40;2.22;;;;;;;-144.85;100.00;61331.59;5080922;28;32753;-73
2023/06/02 08:51:22;;;;;;;8.65;2.42;;;;;;;-144.85;100.00;61331.59;5081151;28;31733;-72
2023/06/02 08:53:49;;;;;;;11.73;2.50;;;;;;;-144.85;100.00;61331.59;5095869;28;31393;-72
2023/06/02 08:56:17;;;;;;;9.75;2.20;;;;;;;-144.85;100.00;61331.59;5080423;28;31296;-72
2023/06/02 08:58:46;;;;;;;10.38;2.47;;;;;;;-144.85;100.00;61331.59;5061361;28;31732;-73
2023/06/02 09:01:13;;;;;;;8.50;2.35;;;;;;;-144.85;100.00;61331.59;5092661;28;31688;-73
2023/06/02 09:03:40;;;;;;;9.55;2.33;;;;;;;-144.85;100.00;61331.59;5098791;28;31563;-73
2023/06/02 09:06:18;;;;;;;10.45;2.33;;;;;;;-144.85;100.00;61331.59;5098373;28;32488;-72
2023/06/02 09:08:57;;;;;;;15.60;2.38;;;;;;;-144.85;100.00;61331.59;5100562;28;31948;-72
2023/06/02 09:11:30;;;;;;;14.57;2.50;;;;;;;-144.85;100.00;61331.59;5097801;28;31594;-72
2023/06/02 09:13:57;;;;;;;10.93;2.15;;;;;;;-144.85;100.00;61331.59;5067896;28;31739;-72
2023/06/02 09:16:37;;;;;;;12.20;2.67;;;;;;;-144.85;100.00;61331.59;5098339;28;32332;-72
2023/06/02 09:19:05;;;;;;;10.65;2.88;;;;;;;-144.85;100.00;61331.59;5098807;28;32232;-71
2023/06/02 09:21:33;;;;;;;11.23;2.75;;;;;;;-144.85;100.00;61331.59;5097921;28;32057;-72
2023/06/02 09:24:02;;;;;;;12.50;2.83;;;;;;;-144.85;100.00;61331.59;5094659;28;31451;-72
2023/06/02 09:26:52;;;;;;;10.23;2.70;;;;;;;-144.85;100.00;61331.59;5101873;28;33248;-72
2023/06/02 09:29:19;;;;;;;7.32;2.63;;;;;;;-144.85;100.00;61331.59;5098546;28;31753;-72
2023/06/02 09:31:55;;;;;;;10.38;2.50;;;;;;;-144.85;100.00;61331.59;5098711;28;33355;-74
2023/06/02 09:34:32;;;;;;;7.88;2.38;;;;;;;-144.85;100.00;61331.59;5109791;28;31614;-72
2023/06/02 09:37:09;;;;;;;6.55;2.67;;;;;;;-144.85;100.00;61331.59;5097075;28;33107;-72
2023/06/02 09:39:46;;;;;;;10.65;2.47;;;;;;;-144.85;100.00;61331.59;5079867;28;32319;-74
2023/06/02 09:42:15;;;;;;;10.15;2.55;;;;;;;-144.85;100.00;61331.59;5091957;28;31898;-73
2023/06/02 09:45:05;;;;;;;7.90;2.55;;;;;;;-144.85;100.00;61331.59;5097636;28;31811;-73
2023/06/02 09:47:38;;;;;;;9.43;2.85;;;;;;;-144.85;100.00;61331.59;5079933;28;32136;-73
2023/06/02 09:50:06;;;;;;;10.05;3.00;;;;;;;-144.85;100.00;61331.59;5095437;28;31920;-73
2023/06/02 09:52:33;;;;;;;9.35;2.55;;;;;;;-144.85;100.00;61331.59;5080470;28;32902;-73
2023/06/02 09:55:06;;;;;;;10.07;2.65;;;;;;;-144.85;100.00;61331.59;5095704;28;31443;-73
2023/06/02 09:57:34;;;;;;;15.23;2.80;;;;;;;-144.85;100.00;61331.59;5097797;28;32255;-73
2023/06/02 10:00:02;;;;;;;12.02;2.83;;;;;;;-144.85;100.00;61331.59;5098231;28;32089;-73
2023/06/02 10:02:38;;;;;;;8.43;2.72;;;;;;;-144.85;100.00;61331.59;5090137;28;33212;-73
2023/06/02 10:05:05;;;;;;;13.65;3.20;;;;;;;-144.85;100.00;61331.59;5062824;28;31582;-73
2023/06/02 10:08:07;;;;;;;8.38;2.75;;;;;;;-144.85;100.00;61331.59;5079433;28;33428;-75
2023/06/02 10:10:55;;;;;;;9.43;3.00;;;;;;;-144.85;100.00;61331.59;5106107;28;32051;-73
2023/06/02 10:13:47;;;;;;;8.35;2.83;;;;;;;-144.85;100.00;61331.59;5074120;28;31614;-73
2023/06/02 10:16:33;;;;;;;9.63;2.88;;;;;;;-144.85;100.00;61331.59;5097418;28;31238;-73
2023/06/02 10:19:37;;;;;;;9.32;3.00;;;;;;;-144.85;100.00;61331.59;5097595;28;32418;-73
2023/06/02 10:22:26;;;;;;;10.27;2.88;;;;;;;-144.85;100.00;61331.59;5076911;28;32130;-73
2023/06/02 10:25:17;;;;;;;10.98;3.05;;;;;;;-144.85;100.00;61331.59;5095016;28;31890;-74
2023/06/02 10:27:48;;;;;;;7.75;2.72;;;;;;;-144.85;100.00;61331.59;5098209;28;31626;-74
2023/06/02 10:30:21;;;;;;;10.30;2.78;;;;;;;-144.85;100.00;61331.59;5089021;28;33125;-73
2023/06/02 10:32:49;;;;;;;9.57;2.80;;;;;;;-144.85;100.00;61331.59;5086600;28;32764;-73
2023/06/02 10:35:18;;;;;;;7.70;3.00;;;;;;;-144.85;100.00;61331.59;5098402;28;31829;-73
2023/06/02 10:37:45;;;;;;;6.97;2.80;;;;;;;-144.85;100.00;61331.59;5079680;28;31502;-74
2023/06/02 10:40:14;;;;;;;10.93;3.30;;;;;;;-144.85;100.00;61331.59;5102085;28;31938;-73
2023/06/02 10:43:12;;;;;;;9.52;3.00;;;;;;;-144.85;100.00;61331.59;5084786;28;33429;-73
2023/06/02 10:45:41;;;;;;;7.65;2.92;;;;;;;-144.85;100.00;61331.59;5107827;28;31917;-73
2023/06/02 10:48:33;;;;;;;11.15;3.15;;;;;;;-144.85;100.00;61331.59;5107684;28;32630;-73
2023/06/02 10:51:01;;;;;;;10.63;3.22;;;;;;;-144.85;100.00;61331.59;5097909;28;32501;-73
2023/06/02 10:53:28;;;;;;;12.13;3.28;;;;;;;-144.85;100.00;61331.59;5096580;28;31759;-74
2023/06/02 10:55:56;;;;;;;9.52;3.38;;;;;;;-144.85;100.00;61331.59;5096497;28;32157;-74
2023/06/02 10:58:49;;;;;;;13.40;3.60;;;;;;;-144.85;100.00;61331.59;5080935;28;32321;-74
2023/06/02 11:01:43;;;;;;;6.88;3.03;;;;;;;-144.85;100.00;61331.59;5088929;28;32460;-73
2023/06/02 11:04:36;;;;;;;8.30;3.00;;;;;;;-144.85;100.00;61331.59;5099514;28;32196;-74
2023/06/02 11:07:25;;;;;;;11.07;3.42;;;;;;;-144.85;100.00;61331.59;5108992;27;31902;-73
2023/06/02 11:09:59;;;;;;;10.63;3.40;;;;;;;-144.85;100.00;61331.59;5093161;28;31454;-73
2023/06/02 11:12:51;;;;;;;9.60;3.50;;;;;;;-144.85;100.00;61331.59;5095773;28;32723;-73
2023/06/02 11:15:19;;;;;;;11.20;3.40;;;;;;;-144.85;100.00;61331.59;5045145;28;31108;-74
2023/06/02 11:17:47;;;;;;;14.45;3.55;;;;;;;-144.85;100.00;61331.59;5098853;28;31763;-73